Time;durP1;ratioP1;P1;durP2;ratioP2;P2;SDS_P1;SDS_P2;PMS_P1;PMS_P2;Temp;Humidity;BMP_temperature;BMP_pressure;BME280_temperature;BME280_humidity;BME280_pressure;Samples;Min_cycle;Max_cycle;Signal;HPM_P1;HPM_P2
2021/07/28 00:01:38;;;;;;;9.95;7.70;;;15.80;99.90;;;16.82;100.00;100035.41;6158117;23;20021;-89
2021/07/28 00:04:04;;;;;;;11.90;7.57;;;15.70;99.90;;;16.81;100.00;100040.25;6133126;23;20013;-87
2021/07/28 00:06:30;;;;;;;10.52;7.70;;;15.70;99.90;;;16.83;100.00;100046.25;6132874;23;20005;-88
2021/07/28 00:08:56;;;;;;;10.93;7.60;;;15.70;99.90;;;16.84;100.00;100050.69;6132423;23;20166;-90
2021/07/28 00:11:22;;;;;;;11.68;7.25;;;15.70;99.90;;;16.72;100.00;100048.38;6133285;23;20010;-88
2021/07/28 00:13:56;;;;;;;9.15;7.53;;;15.60;99.90;;;16.75;100.00;100035.47;6133909;23;20098;-88
2021/07/28 00:16:22;;;;;;;11.93;7.07;;;15.70;99.90;;;16.77;100.00;100038.66;6134389;23;20010;-87
2021/07/28 00:19:02;;;;;;;13.02;7.03;;;15.60;99.90;;;16.79;100.00;100033.41;6133718;23;20056;-90
2021/07/28 00:24:13;;;;;;;12.88;7.30;;;15.60;99.90;;;16.73;100.00;100032.22;6159110;23;20121;-88
2021/07/28 00:26:39;;;;;;;10.65;7.07;;;15.70;99.90;;;16.74;100.00;100031.81;6135207;23;20087;-90
2021/07/28 00:29:05;;;;;;;13.23;6.72;;;15.60;99.90;;;16.76;100.00;100025.78;6135003;23;20025;-90
2021/07/28 00:31:30;;;;;;;10.90;7.53;;;15.60;99.90;;;16.75;100.00;100036.25;6131838;23;20010;-90
2021/07/28 00:33:56;;;;;;;12.90;6.82;;;15.60;99.90;;;16.78;100.00;100032.63;6132681;23;20037;-88
2021/07/28 00:36:22;;;;;;;12.77;7.07;;;15.60;99.90;;;16.85;100.00;100028.94;6132014;23;20006;-90
2021/07/28 00:38:48;;;;;;;7.32;6.32;;;15.70;99.90;;;16.82;100.00;100026.94;6132746;23;20346;-90
2021/07/28 00:41:16;;;;;;;9.80;7.00;;;15.70;99.90;;;16.82;100.00;100027.72;6132739;23;20060;-89
2021/07/28 00:43:42;;;;;;;11.32;7.40;;;15.70;99.90;;;16.82;100.00;100026.94;6157776;23;20428;-87
2021/07/28 00:46:08;;;;;;;9.63;7.07;;;15.80;99.90;;;16.84;100.00;100021.69;6157219;23;20073;-87
2021/07/28 00:48:35;;;;;;;10.48;6.97;;;15.70;99.90;;;16.75;100.00;100021.34;6158946;23;20016;-89
2021/07/28 00:51:01;;;;;;;9.77;6.72;;;15.70;99.90;;;16.81;100.00;100012.03;6132805;23;20006;-88
2021/07/28 00:53:28;;;;;;;9.13;6.47;;;15.70;99.90;;;16.85;100.00;100012.81;6132413;23;20060;-89
2021/07/28 00:55:55;;;;;;;11.75;6.90;;;15.60;99.90;;;16.81;100.00;100019.69;6132866;23;20002;-92
2021/07/28 00:58:21;;;;;;;11.73;6.88;;;15.70;99.90;;;16.75;100.00;100001.63;6131886;23;20016;-91
2021/07/28 01:00:48;;;;;;;10.05;7.32;;;15.70;99.90;;;16.69;100.00;99997.66;6157496;23;20442;-90
2021/07/28 01:03:15;;;;;;;10.98;6.80;;;15.60;99.90;;;16.75;100.00;100001.63;6132387;23;20161;-89
2021/07/28 01:05:44;;;;;;;10.52;7.20;;;15.60;99.90;;;16.76;100.00;100000.41;6132195;23;20009;-88
2021/07/28 01:08:11;;;;;;;11.38;7.18;;;15.70;99.90;;;16.64;100.00;99995.25;6132217;23;20077;-87
2021/07/28 01:10:38;;;;;;;9.77;7.63;;;15.60;99.90;;;16.74;100.00;100011.28;6132833;23;20009;-90
2021/07/28 01:13:06;;;;;;;10.32;7.75;;;15.60;99.90;;;16.69;100.00;100000.47;6132009;23;20010;-90
2021/07/28 01:15:33;;;;;;;9.95;7.35;;;15.60;99.90;;;16.85;100.00;100007.19;6134293;23;20016;-88
2021/07/28 01:18:09;;;;;;;11.25;7.18;;;15.70;99.90;;;16.83;100.00;100008.78;6136926;23;20009;-86
2021/07/28 01:20:45;;;;;;;9.68;7.20;;;15.60;99.90;;;16.79;100.00;99996.75;6150398;23;20040;-90
2021/07/28 01:23:31;;;;;;;11.43;7.28;;;15.60;99.90;;;16.85;100.00;100010.00;6148457;23;20010;-89
2021/07/28 01:26:05;;;;;;;10.15;7.30;;;15.70;99.90;;;16.86;100.00;99997.47;6160220;23;20036;-88
2021/07/28 01:28:36;;;;;;;9.60;6.85;;;15.70;99.90;;;16.90;100.00;100000.28;6159336;23;20016;-87
2021/07/28 01:31:10;;;;;;;13.05;7.00;;;15.70;99.90;;;16.93;100.00;100004.28;6159981;23;20033;-90
2021/07/28 01:33:40;;;;;;;10.45;6.95;;;15.70;99.90;;;16.95;100.00;99994.19;6159671;23;20009;-88
2021/07/28 01:36:13;;;;;;;10.13;7.05;;;15.70;99.90;;;16.90;100.00;100003.09;6161159;23;20013;-88
2021/07/28 01:38:40;;;;;;;9.68;6.78;;;15.80;99.90;;;16.87;100.00;99992.66;6161847;23;20118;-89
2021/07/28 01:41:08;;;;;;;8.90;6.47;;;15.80;99.90;;;17.01;100.00;99998.16;6161977;23;20367;-88
2021/07/28 01:43:35;;;;;;;10.82;7.35;;;15.90;99.90;;;17.01;100.00;99994.53;6160089;23;20060;-89
2021/07/28 01:46:04;;;;;;;10.63;7.15;;;15.80;99.90;;;17.03;100.00;100003.38;6159498;23;20394;-88
2021/07/28 01:48:31;;;;;;;10.85;7.70;;;15.90;99.90;;;17.07;100.00;100009.78;6161245;23;20414;-89
2021/07/28 01:50:58;;;;;;;12.90;7.55;;;16.00;99.90;;;17.01;100.00;100003.00;6161135;23;20013;-89
2021/07/28 01:53:26;;;;;;;9.00;6.70;;;15.90;99.90;;;17.03;100.00;100004.19;6158616;23;20511;-88
2021/07/28 01:55:54;;;;;;;11.30;7.22;;;15.90;99.90;;;17.08;100.00;99995.25;6161024;23;20080;-87
2021/07/28 01:58:21;;;;;;;11.02;6.72;;;16.00;99.90;;;17.17;100.00;100001.22;6158210;23;20103;-89
2021/07/28 02:00:48;;;;;;;10.77;6.70;;;16.10;99.90;;;17.17;100.00;100000.44;6158845;23;20017;-91
2021/07/28 02:03:15;;;;;;;11.88;6.93;;;16.10;99.90;;;17.09;100.00;100010.16;6159617;23;20029;-87
2021/07/28 02:05:43;;;;;;;12.75;7.25;;;16.00;99.90;;;17.05;100.00;100010.19;6157677;23;20010;-87
2021/07/28 02:08:16;;;;;;;11.40;6.80;;;16.00;99.90;;;17.09;100.00;100010.16;6157598;23;20005;-88
2021/07/28 02:10:49;;;;;;;9.60;7.20;;;15.90;99.90;;;17.08;100.00;100003.72;6158687;23;20403;-88
2021/07/28 02:13:18;;;;;;;13.13;7.32;;;16.00;99.90;;;17.20;100.00;99999.59;6158164;23;20293;-87
2021/07/28 02:15:47;;;;;;;11.20;7.15;;;16.00;99.90;;;17.22;100.00;99994.31;6162950;23;20001;-84
2021/07/28 02:18:14;;;;;;;9.90;6.65;;;16.00;99.90;;;17.18;100.00;99999.19;6183216;23;19998;-84
2021/07/28 02:20:40;;;;;;;9.60;7.25;;;16.00;99.90;;;17.22;100.00;99997.13;6173040;23;20017;-90
2021/07/28 02:23:06;;;;;;;11.18;7.25;;;16.00;99.90;;;17.20;100.00;99994.75;6157771;23;20020;-88
2021/07/28 02:25:32;;;;;;;11.00;7.82;;;16.00;99.90;;;17.15;100.00;99995.19;6159571;23;20013;-89
2021/07/28 02:27:58;;;;;;;9.40;7.43;;;16.10;99.90;;;17.11;100.00;99988.81;6158808;23;20009;-89
2021/07/28 02:30:24;;;;;;;9.60;7.07;;;16.00;99.90;;;17.17;100.00;99983.50;6159481;23;20002;-90
2021/07/28 02:32:50;;;;;;;11.05;7.45;;;16.00;99.90;;;17.20;100.00;99983.47;6159048;23;20029;-89
2021/07/28 02:35:17;;;;;;;11.65;7.38;;;16.00;99.90;;;17.16;100.00;99993.16;6158788;23;20021;-89
2021/07/28 02:37:46;;;;;;;12.30;7.53;;;16.10;99.90;;;17.08;100.00;99983.19;6156102;23;20013;-86
2021/07/28 02:40:19;;;;;;;10.32;7.45;;;16.00;99.90;;;17.18;100.00;99983.06;6157862;23;20025;-89
2021/07/28 02:42:46;;;;;;;9.85;7.05;;;16.00;99.90;;;17.20;100.00;99983.47;6180367;23;20075;-87
2021/07/28 02:45:13;;;;;;;11.90;8.13;;;16.00;99.90;;;17.20;100.00;99977.81;6157974;23;20009;-88
2021/07/28 02:47:40;;;;;;;10.18;7.72;;;16.00;99.90;;;17.23;100.00;99979.00;6158913;23;20284;-90
2021/07/28 02:50:08;;;;;;;11.02;8.05;;;16.00;99.90;;;17.20;100.00;99980.66;6158234;23;20013;-89
2021/07/28 02:52:35;;;;;;;16.83;8.02;;;16.10;99.90;;;17.23;100.00;99985.44;6157824;23;20045;-89
2021/07/28 02:55:05;;;;;;;10.88;7.72;;;16.10;99.90;;;17.20;100.00;99988.31;6181883;23;20047;-91
2021/07/28 02:57:36;;;;;;;12.23;8.48;;;16.10;99.90;;;17.23;100.00;99976.97;6159426;23;20032;-91
2021/07/28 03:00:05;;;;;;;11.73;7.30;;;16.10;99.90;;;17.20;100.00;99989.09;6157467;23;20074;-88
2021/07/28 03:02:32;;;;;;;9.60;7.50;;;16.00;99.90;;;17.25;100.00;99970.91;6158564;23;20036;-89
2021/07/28 03:04:58;;;;;;;13.30;7.82;;;16.10;99.90;;;17.23;100.00;99982.63;6158813;23;20013;-88
2021/07/28 03:07:24;;;;;;;10.80;7.32;;;16.10;99.90;;;17.26;99.88;99978.97;6157779;23;20463;-86
2021/07/28 03:09:50;;;;;;;12.05;7.82;;;16.10;99.90;;;17.16;99.84;99973.41;6157474;23;20005;-85
2021/07/28 03:12:16;;;;;;;10.50;7.25;;;16.00;99.90;;;17.17;99.99;99978.66;6157417;23;20009;-87
2021/07/28 03:14:42;;;;;;;10.98;8.15;;;16.00;99.90;;;17.14;100.00;99979.50;6157257;23;20012;-85
2021/07/28 03:17:08;;;;;;;14.05;8.75;;;16.00;99.90;;;17.07;100.00;99973.91;6156879;23;20107;-86
2021/07/28 03:19:33;;;;;;;12.13;8.07;;;15.90;99.90;;;17.06;100.00;99966.66;6156052;23;20012;-88
2021/07/28 03:21:59;;;;;;;12.20;8.52;;;15.90;99.90;;;17.05;100.00;99970.69;6158086;23;20012;-89
2021/07/28 03:24:25;;;;;;;10.93;7.93;;;15.90;99.90;;;16.98;100.00;99967.97;6157597;23;20068;-90
2021/07/28 03:26:51;;;;;;;15.40;8.55;;;15.80;99.90;;;17.00;100.00;99968.34;6158111;23;20009;-87
2021/07/28 03:29:17;;;;;;;14.27;8.07;;;15.90;99.90;;;16.96;100.00;99978.03;6158540;23;20002;-89
2021/07/28 03:31:43;;;;;;;13.13;8.63;;;15.80;99.90;;;16.90;100.00;99968.44;6159985;23;20021;-90
2021/07/28 03:34:08;;;;;;;13.32;8.50;;;15.80;99.90;;;16.85;100.00;99967.69;6158823;23;20005;-85
2021/07/28 03:36:34;;;;;;;14.70;8.82;;;15.80;99.90;;;16.90;100.00;99963.59;6159578;23;20009;-86
2021/07/28 03:39:00;;;;;;;14.10;9.70;;;15.80;99.90;;;16.93;100.00;99973.25;6160347;23;20013;-88
2021/07/28 03:41:26;;;;;;;12.88;9.48;;;15.80;99.90;;;16.85;100.00;99959.22;6161213;23;20044;-86
2021/07/28 03:43:52;;;;;;;14.60;9.13;;;15.80;99.90;;;16.96;100.00;99972.41;6181974;23;20001;-86
2021/07/28 03:46:18;;;;;;;11.88;9.02;;;15.80;99.90;;;16.82;100.00;99970.53;6165622;23;20021;-89
2021/07/28 03:48:45;;;;;;;12.02;9.27;;;15.80;99.90;;;16.82;100.00;99976.97;6158091;23;20062;-88
2021/07/28 03:51:10;;;;;;;12.35;9.15;;;15.70;99.90;;;16.82;100.00;99962.84;6157864;23;20006;-89
2021/07/28 03:53:36;;;;;;;19.05;9.70;;;15.70;99.90;;;16.92;100.00;99968.84;6155679;23;20013;-90
2021/07/28 03:56:02;;;;;;;13.23;9.40;;;15.80;99.90;;;16.93;100.00;99967.59;6163115;23;20021;-89
2021/07/28 03:58:28;;;;;;;15.07;9.25;;;15.80;99.90;;;16.96;100.00;99967.56;6167777;23;20013;-90
2021/07/28 04:00:54;;;;;;;12.73;9.45;;;15.80;99.90;;;16.87;100.00;99958.78;6173112;23;20013;-88
2021/07/28 04:03:20;;;;;;;14.63;9.05;;;15.70;99.90;;;16.93;100.00;99956.31;6164853;23;20014;-87
2021/07/28 04:05:46;;;;;;;12.43;9.07;;;15.70;99.90;;;16.85;100.00;99961.25;6160460;23;20025;-87
2021/07/28 04:08:11;;;;;;;13.50;10.00;;;15.80;99.90;;;16.85;100.00;99955.59;6159672;23;20065;-88
2021/07/28 04:10:37;;;;;;;14.38;9.52;;;15.70;99.90;;;16.85;100.00;99967.69;6159017;23;20013;-88
2021/07/28 04:13:04;;;;;;;12.35;9.50;;;15.70;99.90;;;16.83;100.00;99961.66;6158519;23;20048;-87
2021/07/28 04:15:30;;;;;;;13.35;9.32;;;15.80;99.90;;;16.93;100.00;99961.97;6165576;23;20001;-89
2021/07/28 04:17:56;;;;;;;14.32;9.93;;;15.80;99.90;;;16.82;100.00;99957.22;6166108;23;20036;-87
2021/07/28 04:20:22;;;;;;;14.85;10.00;;;15.80;99.90;;;16.89;100.00;99958.41;6169556;23;20041;-88
2021/07/28 04:22:48;;;;;;;17.55;11.05;;;15.80;99.90;;;16.89;100.00;99959.16;6165135;23;20084;-86
2021/07/28 04:25:13;;;;;;;14.00;9.60;;;15.80;99.90;;;16.95;100.00;99959.53;6136915;23;20009;-89
2021/07/28 04:27:39;;;;;;;17.50;9.25;;;15.80;99.90;;;16.99;100.00;99951.81;6134724;23;20013;-88
2021/07/28 04:30:06;;;;;;;16.50;10.50;;;15.80;99.90;;;17.01;100.00;99953.03;6159231;23;20077;-87
2021/07/28 04:32:33;;;;;;;12.68;9.10;;;15.90;99.90;;;17.10;100.00;99956.16;6162644;23;20004;-87
2021/07/28 04:34:59;;;;;;;12.40;9.07;;;16.00;99.90;;;17.14;100.00;99958.94;6141275;23;20009;-89
2021/07/28 04:37:25;;;;;;;13.88;8.95;;;16.00;99.90;;;17.08;100.00;99949.34;6169903;23;20316;-88
2021/07/28 04:39:51;;;;;;;13.35;9.80;;;16.00;99.90;;;17.07;100.00;99948.53;6143472;23;20020;-88
2021/07/28 04:42:17;;;;;;;16.77;10.10;;;16.00;99.90;;;17.23;100.00;99959.25;6137018;23;20010;-88
2021/07/28 04:44:43;;;;;;;15.15;10.00;;;16.00;99.90;;;17.22;100.00;99964.09;6135499;23;20016;-88
2021/07/28 04:47:09;;;;;;;14.38;10.05;;;16.10;99.90;;;17.43;100.00;99967.91;6160593;23;20029;-90
2021/07/28 04:49:35;;;;;;;15.50;9.32;;;16.20;99.90;;;17.41;100.00;99965.47;6160704;23;20002;-88
2021/07/28 04:52:01;;;;;;;15.15;10.00;;;16.30;99.90;;;17.50;100.00;99971.41;6133911;23;20009;-87
2021/07/28 04:54:27;;;;;;;13.02;10.00;;;16.30;99.90;;;17.54;99.56;99974.19;6161373;23;20005;-89
2021/07/28 04:56:52;;;;;;;11.30;8.93;;;16.40;99.90;;;17.65;98.46;99969.28;6136582;23;20001;-87
2021/07/28 04:59:18;;;;;;;12.30;9.02;;;16.50;99.90;;;17.74;98.41;99978.84;6136064;23;20016;-89
2021/07/28 05:01:44;;;;;;;14.45;9.57;;;16.60;99.90;;;17.76;98.38;99973.53;6136390;23;20013;-89
2021/07/28 05:04:11;;;;;;;12.27;8.55;;;16.60;99.90;;;17.78;98.20;99971.13;6135979;23;20020;-88
2021/07/28 06:12:19;;;;;;;11.82;6.50;;;18.40;99.90;;;19.70;86.17;99974.41;6208669;22;20028;-86
2021/07/28 06:14:51;;;;;;;11.63;6.70;;;18.50;99.90;;;19.60;87.57;99979.03;6211598;23;20104;-87
2021/07/28 06:17:37;;;;;;;9.73;6.93;;;18.60;99.90;;;20.00;85.54;99983.44;6170159;23;20013;-90
2021/07/28 06:20:06;;;;;;;10.80;6.15;;;18.80;99.90;;;19.96;86.47;99984.78;6165106;23;20033;-88
2021/07/28 06:22:34;;;;;;;9.45;6.28;;;18.80;99.90;;;19.87;85.61;99978.91;6165368;23;20027;-85
2021/07/28 06:25:04;;;;;;;10.10;6.30;;;18.90;99.90;;;19.70;86.50;99977.22;6165715;23;20055;-88
2021/07/28 06:27:30;;;;;;;8.23;6.18;;;18.80;99.90;;;19.55;87.07;99992.94;6164798;23;20428;-89
2021/07/28 06:29:56;;;;;;;10.68;6.38;;;18.60;99.90;;;19.04;91.14;99997.88;6164120;23;20088;-89
2021/07/28 06:32:22;;;;;;;9.75;6.82;;;18.30;99.90;;;18.85;94.18;99988.09;6163234;23;20386;-87
2021/07/28 06:34:48;;;;;;;13.25;7.47;;;18.00;99.90;;;18.43;97.54;99975.41;6163504;23;20036;-87
2021/07/28 06:37:14;;;;;;;11.05;7.20;;;17.60;99.90;;;18.36;98.74;99980.41;6187620;23;20069;-86
2021/07/28 06:39:40;;;;;;;12.07;8.18;;;17.40;99.90;;;18.20;100.00;99978.22;6165184;23;20016;-88
2021/07/28 06:42:06;;;;;;;9.90;7.50;;;17.30;99.90;;;18.67;100.00;99973.47;6164105;23;20331;-89
2021/07/28 06:44:37;;;;;;;11.65;7.30;;;17.40;99.90;;;19.07;96.61;99984.91;6163895;23;20005;-87
2021/07/28 06:47:08;;;;;;;9.93;6.68;;;17.80;99.90;;;19.46;94.33;99973.66;6188867;23;20009;-90
2021/07/28 06:49:34;;;;;;;10.38;7.20;;;18.10;99.90;;;19.60;94.12;99981.88;6163957;23;20016;-89
2021/07/28 06:52:00;;;;;;;9.45;7.55;;;18.40;99.90;;;19.59;94.74;99976.63;6165512;23;20016;-90
2021/07/28 06:54:26;;;;;;;10.15;6.68;;;18.50;99.90;;;19.72;91.94;99981.22;6164051;23;20032;-88
2021/07/28 06:56:52;;;;;;;8.75;6.38;;;18.50;99.90;;;19.70;91.73;99972.38;6187831;23;20001;-88
2021/07/28 06:59:23;;;;;;;7.65;6.50;;;18.50;99.90;;;19.57;92.78;99973.44;6162723;23;20086;-89
2021/07/28 07:01:50;;;;;;;9.27;6.85;;;18.40;99.90;;;19.81;92.22;99980.66;6162894;23;20012;-89
2021/07/28 07:04:16;;;;;;;12.73;7.13;;;18.50;99.90;;;20.12;91.00;99975.50;6162564;23;20351;-88
2021/07/28 07:06:43;;;;;;;11.05;6.60;;;18.90;99.90;;;20.34;89.66;99980.28;6162870;23;20013;-89
2021/07/28 07:09:09;;;;;;;9.10;5.95;;;19.20;99.90;;;20.97;86.54;99982.78;6163162;23;20005;-87
2021/07/28 07:11:35;;;;;;;9.50;6.00;;;19.60;99.90;;;21.55;84.02;99975.94;6175653;23;20008;-89
2021/07/28 07:14:01;;;;;;;7.93;5.90;;;20.20;99.90;;;21.34;82.92;99975.75;6218457;23;20008;-87
2021/07/28 07:16:33;;;;;;;6.97;5.47;;;20.30;99.90;;;21.19;84.11;99974.56;6219394;23;20015;-89
2021/07/28 07:19:02;;;;;;;7.97;4.80;;;20.20;99.90;;;21.27;81.83;99981.63;6216783;23;20036;-90
2021/07/28 07:21:27;;;;;;;8.45;4.93;;;20.20;99.90;;;20.97;84.51;99977.09;6218058;23;20023;-89
2021/07/28 07:23:55;;;;;;;9.57;5.57;;;20.10;99.90;;;20.76;85.14;99989.00;6218504;23;20379;-90
2021/07/28 07:26:21;;;;;;;7.95;4.97;;;19.80;99.90;;;20.56;86.83;99982.59;6242959;23;20457;-88
2021/07/28 07:28:47;;;;;;;7.65;5.78;;;19.60;99.90;;;20.37;86.90;99987.13;6220028;23;20016;-90
2021/07/28 07:31:14;;;;;;;6.55;5.40;;;19.50;99.90;;;20.42;85.96;99983.78;6218383;23;20027;-91
2021/07/28 07:33:40;;;;;;;11.07;5.15;;;19.40;99.90;;;20.52;85.72;99984.75;6244419;23;20120;-91
2021/07/28 07:36:17;;;;;;;8.60;5.63;;;19.30;99.90;;;20.42;86.93;99984.53;6217118;23;20100;-90
2021/07/28 07:38:48;;;;;;;7.00;5.00;;;19.30;99.90;;;20.17;87.34;99992.78;6219620;23;20039;-91
2021/07/28 07:41:15;;;;;;;10.27;5.80;;;19.20;99.90;;;20.14;89.64;99990.84;6220402;23;20092;-89
2021/07/28 07:43:42;;;;;;;9.25;5.60;;;19.00;99.90;;;19.82;91.54;99988.69;6219149;23;20068;-90
2021/07/28 07:46:09;;;;;;;7.50;5.80;;;18.90;99.90;;;19.85;92.66;99987.03;6220256;23;20023;-90
2021/07/28 07:48:36;;;;;;;8.73;5.80;;;18.90;99.90;;;20.13;94.05;99983.56;6222112;23;20036;-86
2021/07/28 07:51:06;;;;;;;12.25;5.88;;;19.00;99.90;;;20.38;88.05;99989.53;6216783;23;20004;-87
2021/07/28 07:53:32;;;;;;;8.65;5.60;;;19.10;99.90;;;20.33;89.17;99989.22;6221872;23;20005;-88
2021/07/28 07:55:58;;;;;;;7.70;5.72;;;19.10;99.90;;;19.89;89.68;99987.75;6222132;23;20035;-90
2021/07/28 07:58:25;;;;;;;8.68;4.97;;;19.00;99.90;;;19.75;92.69;99982.38;6247247;23;20009;-90
2021/07/28 08:00:51;;;;;;;11.40;5.68;;;18.80;99.90;;;19.95;90.75;99975.47;6223843;23;20008;-90
2021/07/28 08:03:17;;;;;;;7.40;5.97;;;18.70;99.90;;;19.90;90.14;99980.84;6220360;23;20009;-90
2021/07/28 08:05:44;;;;;;;8.00;5.57;;;18.80;99.90;;;20.39;89.67;99981.78;6220150;23;20012;-88
2021/07/28 08:08:11;;;;;;;6.60;5.47;;;19.10;99.90;;;21.46;87.86;99972.16;6218179;23;20015;-86
2021/07/28 08:10:39;;;;;;;8.60;4.85;;;19.90;99.90;;;22.04;81.07;99972.94;6193416;23;20013;-87
2021/07/28 08:13:05;;;;;;;8.38;5.07;;;20.50;99.90;;;22.82;79.56;99971.28;6242953;23;20008;-87
2021/07/28 08:15:31;;;;;;;8.20;5.05;;;21.10;99.90;;;22.43;77.92;99960.34;6216985;23;20087;-89
2021/07/28 08:17:57;;;;;;;8.57;4.65;;;21.40;99.90;;;22.29;78.17;99967.25;6216452;23;20008;-86
2021/07/28 08:20:23;;;;;;;7.75;4.75;;;21.20;99.90;;;22.35;78.03;99965.44;6218163;23;20019;-87
2021/07/28 08:22:49;;;;;;;6.32;4.95;;;21.10;99.90;;;22.72;79.12;99958.19;6216857;23;20008;-92
2021/07/28 08:25:15;;;;;;;6.97;4.53;;;21.30;99.90;;;22.34;77.38;99963.88;6242008;23;20021;-86
2021/07/28 08:27:42;;;;;;;6.50;5.28;;;21.20;99.90;;;22.11;80.25;99966.22;6218008;23;20388;-87
2021/07/28 08:30:13;;;;;;;10.52;5.15;;;21.10;99.90;;;22.00;77.76;99964.50;6236751;23;20081;-86
2021/07/28 08:32:41;;;;;;;8.40;4.45;;;20.90;99.90;;;21.74;79.45;99973.38;6226265;23;20039;-86
2021/07/28 08:35:09;;;;;;;6.50;4.97;;;20.80;99.90;;;22.12;78.13;99974.31;6215942;23;20008;-87
2021/07/28 08:37:39;;;;;;;6.53;4.70;;;20.90;99.90;;;21.52;77.90;99968.34;6215041;23;20012;-88
2021/07/28 08:40:22;;;;;;;7.32;4.65;;;20.60;99.90;;;21.22;80.76;99963.09;6215284;23;20040;-89
2021/07/28 08:42:58;;;;;;;6.63;4.53;;;20.40;99.90;;;20.74;85.25;99971.66;6241761;23;20016;-90
2021/07/28 08:45:25;;;;;;;;;;;20.00;99.90;;;20.43;85.99;99979.69;6216707;23;20004;-89
2021/07/28 08:47:52;;;;;;;7.35;5.28;;;19.60;99.90;;;20.21;89.69;99979.34;6215336;23;19907;-87
2021/07/28 08:50:32;;;;;;;8.48;5.80;;;19.40;99.90;;;20.24;90.61;99992.66;6215751;23;20035;-85
2021/07/28 08:53:00;;;;;;;7.70;5.50;;;19.20;99.90;;;20.16;92.02;99998.91;6215861;23;20342;-87
2021/07/28 08:55:26;;;;;;;10.88;6.53;;;19.00;99.90;;;20.04;93.39;99997.53;6215079;23;20012;-86
2021/07/28 08:58:12;;;;;;;9.57;6.07;;;18.90;99.90;;;19.67;95.68;100004.41;6215412;23;20047;-86
2021/07/28 09:00:46;;;;;;;;;;;18.70;99.90;;;19.33;97.72;99998.94;6193591;23;20017;-87
2021/07/28 09:03:15;;;;;;;10.20;6.05;;;18.50;99.90;;;19.32;97.38;100005.88;6215908;23;19958;-86
2021/07/28 09:05:48;;;;;;;9.10;5.90;;;18.40;99.90;;;19.29;97.19;100009.56;6216865;23;20111;-87
2021/07/28 09:08:35;;;;;;;9.43;6.57;;;18.30;99.90;;;19.30;97.89;100019.63;6215535;23;20032;-90
2021/07/28 09:11:08;;;;;;;9.20;5.85;;;18.20;99.90;;;19.19;98.85;100019.06;6214826;23;20453;-87
2021/07/28 09:14:13;;;;;;;8.38;5.60;;;18.10;99.90;;;19.14;99.24;100019.53;6161483;23;20018;-87
2021/07/28 09:16:45;;;;;;;11.45;6.30;;;18.00;99.90;;;19.03;100.00;100010.44;6162120;23;20043;-87
2021/07/28 09:19:11;;;;;;;11.65;7.30;;;18.00;99.90;;;19.11;100.00;100011.91;6162099;23;20013;-87
2021/07/28 09:21:37;;;;;;;10.32;6.97;;;18.00;99.90;;;19.22;100.00;100006.84;6161324;23;20036;-88
2021/07/28 09:24:11;;;;;;;9.90;7.22;;;18.10;99.90;;;19.40;100.00;100009.38;6161267;23;20342;-89
2021/07/28 09:26:49;;;;;;;7.93;6.38;;;18.10;99.90;;;19.46;99.61;100010.47;6185334;23;20036;-87
2021/07/28 09:29:30;;;;;;;9.95;6.65;;;18.30;99.90;;;19.60;98.94;100021.53;6160978;23;20064;-87
2021/07/28 09:32:09;;;;;;;8.00;6.00;;;18.40;99.90;;;19.88;99.23;100017.31;6160597;23;20012;-88
2021/07/28 09:34:39;;;;;;;8.40;5.03;;;18.60;99.90;;;20.15;96.98;100017.16;6161512;23;20009;-86
2021/07/28 09:37:18;;;;;;;9.18;5.40;;;18.80;99.90;;;20.11;93.01;100019.25;6161474;23;20002;-90
2021/07/28 09:39:51;;;;;;;8.02;5.60;;;18.90;99.90;;;20.48;94.45;100025.31;6164444;23;20016;-89
2021/07/28 09:43:03;;;;;;;10.05;5.53;;;19.00;99.90;;;20.87;91.71;100027.22;6189042;23;20015;-88
2021/07/28 09:49:19;;;;;;;9.65;4.35;;;19.60;99.90;;;21.13;84.76;100022.56;6130161;23;20333;-89
2021/07/28 09:51:46;;;;;;;5.28;4.10;;;19.70;99.90;;;20.92;86.67;100023.88;6164872;23;20453;-90
2021/07/28 09:54:29;;;;;;;4.85;3.95;;;19.60;99.90;;;21.79;82.23;100026.84;6165581;23;20416;-91
2021/07/28 09:56:58;;;;;;;6.30;3.80;;;20.20;99.90;;;22.21;78.56;100016.31;6164673;23;20012;-89
2021/07/28 09:59:35;;;;;;;5.97;3.85;;;20.80;99.90;;;23.13;76.51;100019.84;6166127;23;20343;-90
2021/07/28 10:02:05;;;;;;;7.65;3.95;;;21.40;99.90;;;23.66;74.98;100015.16;6166794;23;20020;-88
2021/07/28 10:04:33;;;;;;;5.28;3.58;;;21.90;99.90;;;23.85;71.13;100007.53;6167799;23;20009;-90
2021/07/28 10:07:02;;;;;;;5.60;3.88;;;22.20;99.90;;;24.54;70.71;100014.63;6169020;23;20009;-89
2021/07/28 10:09:50;;;;;;;5.78;3.95;;;22.70;99.90;;;24.02;71.16;100009.69;6165639;23;20017;-88
2021/07/28 10:12:25;;;;;;;7.47;4.03;;;22.80;99.90;;;24.48;68.79;100010.00;6194251;23;20032;-88
2021/07/28 10:15:07;;;;;;;5.05;3.45;;;22.90;99.90;;;24.27;69.54;100008.78;6244580;23;20051;-89
2021/07/28 10:17:43;;;;;;;5.82;3.60;;;22.80;99.90;;;24.92;68.65;100005.75;6218445;23;20032;-91
2021/07/28 10:20:14;;;;;;;5.35;3.35;;;23.10;99.90;;;24.88;68.66;100007.19;6218640;23;20374;-87
2021/07/28 10:22:44;;;;;;;6.03;3.90;;;23.30;99.90;;;25.06;65.77;100007.22;6217925;23;20013;-89
2021/07/28 10:25:22;;;;;;;6.97;3.58;;;23.50;99.90;;;25.05;65.29;99999.91;6217502;23;20347;-89
2021/07/28 10:27:55;;;;;;;6.00;3.58;;;23.70;99.90;;;26.10;62.60;99997.22;6218022;23;20012;-91
2021/07/28 10:30:23;;;;;;;5.22;3.28;;;24.00;99.90;;;26.35;62.68;99996.09;6219150;23;20284;-89
2021/07/28 10:32:52;;;;;;;9.23;3.97;;;24.30;99.90;;;25.00;62.86;99987.06;6219504;23;20012;-86
2021/07/28 10:35:31;;;;;;;5.28;3.55;;;24.00;99.90;;;25.05;61.81;99977.03;6218026;23;20016;-89
2021/07/28 10:38:21;;;;;;;6.18;4.15;;;23.80;99.90;;;25.30;62.13;99976.75;6218456;23;20015;-90
2021/07/28 10:40:59;;;;;;;10.45;4.00;;;23.90;99.90;;;24.79;63.40;99967.13;6246210;23;20008;-89
2021/07/28 10:43:25;;;;;;;5.22;3.50;;;23.60;99.90;;;24.68;64.87;99973.28;6225633;23;20035;-86
2021/07/28 10:45:59;;;;;;;5.15;3.00;;;23.50;99.90;;;24.70;64.97;99967.09;6236539;23;20012;-89
2021/07/28 10:48:52;;;;;;;6.32;3.50;;;23.50;99.90;;;24.82;63.84;99966.22;6224439;23;20076;-89
2021/07/28 10:52:13;;;;;;;5.22;3.30;;;23.60;99.90;;;24.90;61.47;99961.78;6194737;23;20039;-85
2021/07/28 10:54:49;;;;;;;4.20;2.90;;;23.60;99.90;;;25.27;61.75;99963.41;6217702;23;20005;-91
2021/07/28 10:57:34;;;;;;;6.03;3.30;;;23.90;99.90;;;25.52;60.12;99960.31;6243361;23;20016;-88
2021/07/28 11:00:58;;;;;;;;;;;;;;;;;;;;;
2021/07/28 11:08:34;;;;;;;5.75;3.53;;;23.00;99.90;;;23.37;66.68;99960.41;6156894;23;20060;-88
2021/07/28 11:11:29;;;;;;;8.25;3.17;;;22.40;99.90;;;23.35;66.84;99952.31;6132814;23;20323;-90
2021/07/28 11:14:17;;;;;;;6.00;3.08;;;22.10;99.90;;;24.47;60.76;99954.97;6156144;23;20014;-90
2021/07/28 11:17:05;;;;;;;4.15;3.05;;;22.70;99.90;;;24.89;61.18;99948.75;6158540;23;20005;-91
2021/07/28 11:19:48;;;;;;;4.70;2.83;;;23.20;99.90;;;24.73;61.24;99949.81;6157773;23;20010;-90
2021/07/28 11:22:24;;;;;;;4.90;3.03;;;23.30;99.90;;;25.27;60.78;99948.34;6132458;23;20017;-90
2021/07/28 16:01:57;;;;;;;4.80;1.70;;;22.80;93.00;;;23.87;50.74;99960.16;6267379;22;20078;-84
2021/07/28 16:04:31;;;;;;;4.47;1.80;;;22.70;92.70;;;23.59;51.51;99961.25;6194723;23;20008;-83
2021/07/28 16:06:58;;;;;;;3.90;1.88;;;22.50;93.30;;;23.50;51.29;99964.81;6192058;23;20012;-85
2021/07/28 16:09:27;;;;;;;4.90;1.80;;;22.40;93.60;;;23.63;51.42;99962.69;6190834;23;20009;-86
2021/07/28 16:11:58;;;;;;;4.45;1.98;;;22.40;94.40;;;23.93;51.47;99969.72;6191657;23;20012;-87
2021/07/28 16:14:59;;;;;;;3.25;1.88;;;22.50;95.80;;;23.94;51.01;99964.81;6216940;23;20019;-91
2021/07/28 16:18:01;;;;;;;4.55;1.65;;;22.60;95.20;;;24.28;51.36;99981.81;6169651;23;20004;-87
2021/07/28 16:20:31;;;;;;;3.60;1.50;;;22.70;96.50;;;24.40;50.18;99969.50;6193658;23;20004;-86